createdAt,value
2023-03-02T00:01:34.706Z,5.13
2023-03-02T00:04:03.458Z,2.75
2023-03-02T00:06:32.713Z,4.47
2023-03-02T00:09:04.898Z,4.10
2023-03-02T00:11:33.196Z,4.55
2023-03-02T00:14:03.038Z,4.75
2023-03-02T00:16:33.576Z,6.57
2023-03-02T00:19:02.288Z,3.83
2023-03-02T00:21:29.971Z,4.07
2023-03-02T00:23:57.684Z,3.88
2023-03-02T00:26:25.480Z,5.97
2023-03-02T00:28:53.196Z,6.45
2023-03-02T00:31:20.876Z,3.95
2023-03-02T00:33:48.492Z,1.63
2023-03-02T00:36:17.829Z,4.35
2023-03-02T00:38:45.461Z,2.90
2023-03-02T00:41:14.129Z,6.38
2023-03-02T00:43:44.081Z,2.92
2023-03-02T00:48:44.009Z,5.05
2023-03-02T00:51:11.584Z,3.67
2023-03-02T00:53:39.660Z,2.03
2023-03-02T00:56:09.969Z,3.88
2023-03-02T00:58:38.082Z,4.60
2023-03-02T01:01:11.498Z,2.03
2023-03-02T01:03:39.364Z,1.50
2023-03-02T01:06:14.823Z,1.75
2023-03-02T01:08:42.287Z,2.38
2023-03-02T01:11:19.093Z,5.07
2023-03-02T01:13:46.874Z,5.43
2023-03-02T01:16:14.920Z,2.17
2023-03-02T01:18:42.674Z,0.95
2023-03-02T01:21:13.372Z,2.78
2023-03-02T01:23:41.146Z,6.82
2023-03-02T01:26:08.896Z,4.00
2023-03-02T01:28:38.890Z,3.40
2023-03-02T01:33:37.090Z,1.30
2023-03-02T01:36:04.849Z,2.20
2023-03-02T01:38:32.586Z,3.53
2023-03-02T01:41:00.249Z,2.60
2023-03-02T01:43:30.190Z,4.07
2023-03-02T01:46:05.609Z,5.13
2023-03-02T01:48:38.205Z,2.70
2023-03-02T01:51:07.405Z,0.77
2023-03-02T01:53:36.252Z,4.95
2023-03-02T01:56:04.968Z,3.67
2023-03-02T01:58:37.193Z,7.53
2023-03-02T02:01:05.173Z,2.70
2023-03-02T02:03:34.165Z,3.95
2023-03-02T02:06:11.795Z,4.57
2023-03-02T02:08:39.924Z,4.18
2023-03-02T02:11:07.657Z,3.13
2023-03-02T02:13:34.988Z,2.00
2023-03-02T02:16:02.532Z,3.50
2023-03-02T02:18:30.602Z,2.42
2023-03-02T02:20:58.873Z,6.00
2023-03-02T02:23:31.164Z,2.50
2023-03-02T02:26:11.366Z,4.50
2023-03-02T02:28:44.051Z,1.92
2023-03-02T02:31:40.026Z,3.20
2023-03-02T02:34:53.746Z,2.13
2023-03-02T02:37:42.319Z,9.52
2023-03-02T02:40:16.872Z,3.75
2023-03-02T02:42:49.990Z,3.13
2023-03-02T02:45:22.590Z,3.67
2023-03-02T02:47:50.603Z,4.25
2023-03-02T02:50:29.358Z,6.43
2023-03-02T02:53:05.848Z,3.35
2023-03-02T02:55:34.974Z,2.75
2023-03-02T02:58:10.153Z,2.50
2023-03-02T03:00:38.463Z,7.88
2023-03-02T03:03:29.108Z,2.63
2023-03-02T03:05:57.360Z,2.53
2023-03-02T03:08:56.254Z,3.60
2023-03-02T03:11:26.696Z,6.45
2023-03-02T03:14:10.198Z,9.32
2023-03-02T03:16:39.580Z,8.02
2023-03-02T03:19:26.674Z,6.10
2023-03-02T03:21:58.699Z,5.15
2023-03-02T03:24:28.905Z,5.47
2023-03-02T03:26:56.554Z,5.57
2023-03-02T03:29:25.993Z,2.08
2023-03-02T03:31:54.990Z,6.38
2023-03-02T03:34:25.474Z,3.58
2023-03-02T03:36:53.137Z,6.68
2023-03-02T03:39:21.247Z,1.98
2023-03-02T03:41:48.907Z,5.90
2023-03-02T03:44:19.057Z,7.30
2023-03-02T03:49:16.751Z,8.18
2023-03-02T03:51:44.469Z,5.18
2023-03-02T03:54:12.753Z,3.42
2023-03-02T03:56:42.870Z,2.42
2023-03-02T04:01:46.915Z,5.90
2023-03-02T04:04:20.834Z,6.50
2023-03-02T04:06:48.317Z,7.15
2023-03-02T04:09:18.096Z,5.63
2023-03-02T04:11:49.261Z,5.28
2023-03-02T04:14:17.274Z,8.88
2023-03-02T04:16:45.312Z,7.30
2023-03-02T04:19:13.391Z,5.07
2023-03-02T04:21:45.145Z,3.58
2023-03-02T04:24:13.332Z,9.02
2023-03-02T04:26:45.069Z,15.90
2023-03-02T04:29:13.648Z,15.77
2023-03-02T04:31:41.302Z,6.45
2023-03-02T04:34:11.636Z,8.02
2023-03-02T04:36:40.528Z,14.00
2023-03-02T04:39:08.787Z,10.10
2023-03-02T04:41:36.547Z,9.15
2023-03-02T04:44:04.352Z,7.72
2023-03-02T04:46:33.089Z,18.92
2023-03-02T04:49:00.966Z,9.20
2023-03-02T04:51:41.402Z,12.05
2023-03-02T04:54:17.251Z,8.98
2023-03-02T04:56:45.068Z,13.00
2023-03-02T04:59:12.572Z,12.88
2023-03-02T05:01:41.452Z,13.32
2023-03-02T05:04:09.194Z,10.80
2023-03-02T05:06:36.554Z,12.32
2023-03-02T05:09:09.568Z,6.30
2023-03-02T05:11:37.221Z,5.10
2023-03-02T05:14:07.248Z,2.03
2023-03-02T05:16:37.058Z,8.77
2023-03-02T05:19:06.620Z,7.65
2023-03-02T05:21:34.270Z,11.02
2023-03-02T05:24:04.324Z,7.53
2023-03-02T05:29:02.135Z,6.85
2023-03-02T05:31:35.400Z,11.07
2023-03-02T05:34:04.994Z,7.95
2023-03-02T05:36:33.102Z,12.80
2023-03-02T05:39:01.380Z,4.55
2023-03-02T05:41:29.145Z,10.05
2023-03-02T05:43:56.795Z,9.93
2023-03-02T05:46:26.982Z,4.85
2023-03-02T05:48:54.674Z,16.02
2023-03-02T05:51:24.794Z,19.58
2023-03-02T05:56:22.268Z,13.57
2023-03-02T06:01:17.076Z,37.42
2023-03-02T06:03:44.635Z,16.35
2023-03-02T06:06:15.188Z,20.00
2023-03-02T06:08:43.576Z,10.27
2023-03-02T06:11:11.524Z,29.98
2023-03-02T06:13:39.226Z,24.42
2023-03-02T06:16:07.371Z,29.38
2023-03-02T06:18:38.379Z,28.88
2023-03-02T06:21:06.977Z,33.85
2023-03-02T06:23:34.509Z,31.80
2023-03-02T06:26:08.255Z,16.52
2023-03-02T06:28:49.747Z,15.30
2023-03-02T06:31:19.368Z,26.23
2023-03-02T06:33:47.071Z,22.40
2023-03-02T06:36:16.997Z,18.23
2023-03-02T06:38:44.445Z,15.40
2023-03-02T06:41:14.565Z,21.88
2023-03-02T06:43:42.115Z,20.23
2023-03-02T06:46:09.729Z,30.08
2023-03-02T06:48:37.492Z,24.10
2023-03-02T06:51:08.690Z,19.67
2023-03-02T06:53:36.039Z,19.48
2023-03-02T06:56:06.353Z,23.15
2023-03-02T06:58:34.074Z,28.88
2023-03-02T07:01:02.130Z,18.08
2023-03-02T07:03:32.205Z,35.88
2023-03-02T07:08:28.674Z,25.27
2023-03-02T07:10:59.076Z,19.73
2023-03-02T07:13:29.281Z,28.17
2023-03-02T07:15:56.853Z,21.30
2023-03-02T07:18:24.284Z,14.65
2023-03-02T07:20:51.881Z,32.85
2023-03-02T07:23:23.780Z,26.13
2023-03-02T07:25:54.829Z,33.40
2023-03-02T07:28:24.306Z,31.95
2023-03-02T07:30:55.248Z,14.88
2023-03-02T07:33:22.981Z,38.53
2023-03-02T07:35:50.837Z,20.63
2023-03-02T07:38:21.248Z,29.95
2023-03-02T07:40:48.618Z,24.60
2023-03-02T07:43:16.345Z,18.08
2023-03-02T07:45:43.673Z,35.50
2023-03-02T07:48:11.278Z,31.88
2023-03-02T07:50:39.905Z,44.72
2023-03-02T07:53:07.352Z,28.42
2023-03-02T07:55:42.014Z,29.63
2023-03-02T07:58:10.020Z,25.55
2023-03-02T08:00:42.690Z,23.77
2023-03-02T08:03:10.340Z,28.50
2023-03-02T08:05:40.823Z,20.25
2023-03-02T08:08:08.794Z,12.52
2023-03-02T08:10:36.524Z,21.20
2023-03-02T08:13:05.242Z,26.92
2023-03-02T08:15:32.776Z,20.13
2023-03-02T08:18:00.500Z,20.65
2023-03-02T08:20:28.299Z,15.43
2023-03-02T08:22:56.117Z,80.82
2023-03-02T08:25:23.680Z,23.90
2023-03-02T08:27:53.782Z,41.72
2023-03-02T08:32:48.336Z,45.00
2023-03-02T08:35:18.924Z,23.65
2023-03-02T08:37:46.328Z,30.40
2023-03-02T08:40:14.046Z,32.78
2023-03-02T08:42:41.694Z,30.33
2023-03-02T08:45:09.489Z,34.33
2023-03-02T08:47:36.871Z,22.30
2023-03-02T08:50:05.057Z,38.15
2023-03-02T08:52:35.100Z,23.50
2023-03-02T08:57:34.896Z,28.00
2023-03-02T09:00:08.892Z,65.03
2023-03-02T09:02:36.459Z,45.30
2023-03-02T09:05:04.057Z,45.80
2023-03-02T09:07:31.575Z,43.28
2023-03-02T09:09:59.040Z,37.13
2023-03-02T09:12:26.345Z,28.65
2023-03-02T09:14:54.047Z,48.20
2023-03-02T09:17:21.798Z,29.75
2023-03-02T09:19:49.544Z,37.85
2023-03-02T09:22:19.281Z,35.75
2023-03-02T09:24:46.972Z,27.67
2023-03-02T09:27:16.978Z,22.33
2023-03-02T09:32:13.636Z,16.98
2023-03-02T09:34:41.523Z,15.25
2023-03-02T09:37:09.393Z,27.77
2023-03-02T09:39:37.845Z,25.25
2023-03-02T09:42:22.795Z,25.15
2023-03-02T09:45:13.621Z,14.70
2023-03-02T09:47:53.138Z,24.77
2023-03-02T09:50:24.241Z,21.08
2023-03-02T09:53:18.340Z,23.00
2023-03-02T09:55:46.347Z,29.25
2023-03-02T09:58:25.642Z,20.75
2023-03-02T10:00:53.460Z,21.92
2023-03-02T10:03:47.422Z,32.83
2023-03-02T10:06:15.245Z,13.63
2023-03-02T10:08:46.019Z,25.45
2023-03-02T10:11:17.875Z,26.15
2023-03-02T10:14:17.015Z,31.92
2023-03-02T10:17:07.796Z,20.90
2023-03-02T10:19:44.974Z,23.58
2023-03-02T10:22:27.885Z,27.00
2023-03-02T10:25:26.706Z,18.13
2023-03-02T10:28:22.931Z,22.88
2023-03-02T10:31:25.847Z,19.42
2023-03-02T10:33:53.443Z,16.75
2023-03-02T10:36:23.423Z,20.15
2023-03-02T10:38:51.906Z,17.05
2023-03-02T10:41:41.146Z,27.95
2023-03-02T10:44:22.068Z,16.80
2023-03-02T10:46:49.502Z,19.08
2023-03-02T10:49:28.799Z,18.30
2023-03-02T10:52:20.697Z,15.82
2023-03-02T10:54:48.448Z,22.55
2023-03-02T10:57:32.941Z,23.45
2023-03-02T11:00:14.619Z,27.13
2023-03-02T11:02:50.650Z,22.00
2023-03-02T11:05:18.235Z,22.33
2023-03-02T11:08:10.861Z,35.72
2023-03-02T11:10:55.745Z,29.23
2023-03-02T11:13:38.807Z,13.57
2023-03-02T11:16:06.551Z,21.75
2023-03-02T11:18:57.253Z,14.70
2023-03-02T11:21:36.112Z,20.17
2023-03-02T11:24:15.510Z,18.15
2023-03-02T11:26:50.275Z,19.25
2023-03-02T11:29:34.024Z,20.50
2023-03-02T11:32:10.920Z,11.85
2023-03-02T11:34:52.972Z,14.00
2023-03-02T11:37:41.678Z,16.65
2023-03-02T11:40:14.937Z,19.25
2023-03-02T11:42:46.281Z,25.00
2023-03-02T11:45:30.467Z,23.25
2023-03-02T11:48:12.701Z,33.72
2023-03-02T11:51:06.171Z,15.73
2023-03-02T11:53:55.957Z,26.10
2023-03-02T11:56:24.235Z,16.65
2023-03-02T11:58:57.860Z,23.17
2023-03-02T12:01:26.909Z,17.02
2023-03-02T12:04:06.892Z,12.57
2023-03-02T12:06:40.038Z,22.33
2023-03-02T12:09:09.580Z,20.48
2023-03-02T12:11:41.480Z,13.32
2023-03-02T12:14:47.918Z,10.75
2023-03-02T12:17:46.491Z,18.08
2023-03-02T12:20:26.997Z,23.33
2023-03-02T12:22:55.280Z,13.60
2023-03-02T12:25:27.563Z,11.27
2023-03-02T12:27:55.766Z,20.95
2023-03-02T12:30:28.355Z,15.82
2023-03-02T12:33:05.198Z,23.10
2023-03-02T12:35:34.606Z,14.30
2023-03-02T12:38:37.146Z,15.25
2023-03-02T12:41:25.297Z,13.88
2023-03-02T12:44:04.760Z,21.00
2023-03-02T12:46:41.149Z,24.95
2023-03-02T12:49:12.786Z,13.48
2023-03-02T12:52:01.011Z,26.67
2023-03-02T12:54:32.386Z,13.75
2023-03-02T12:57:04.360Z,12.15
2023-03-02T12:59:34.152Z,11.90
2023-03-02T13:05:09.033Z,18.50
2023-03-02T13:07:55.136Z,15.60
2023-03-02T13:10:41.667Z,26.52
2023-03-02T13:13:18.699Z,17.65
2023-03-02T13:15:59.450Z,18.25
2023-03-02T13:18:36.914Z,23.75
2023-03-02T13:21:05.867Z,15.50
2023-03-02T13:23:34.752Z,12.68
2023-03-02T13:26:06.311Z,29.08
2023-03-02T13:28:35.455Z,17.52
2023-03-02T13:31:08.529Z,26.92
2023-03-02T13:33:46.969Z,34.40
2023-03-02T13:36:21.936Z,21.00
2023-03-02T13:38:54.761Z,18.83
2023-03-02T13:41:30.427Z,23.92
2023-03-02T13:43:59.560Z,19.25
2023-03-02T13:47:02.543Z,23.27
2023-03-02T13:49:38.634Z,18.10
2023-03-02T13:52:17.772Z,18.40
2023-03-02T13:54:53.210Z,29.80
2023-03-02T13:57:33.211Z,27.92
2023-03-02T14:00:01.087Z,20.42
2023-03-02T14:02:31.430Z,11.93
2023-03-02T14:05:02.540Z,10.25
2023-03-02T14:07:33.122Z,24.85
2023-03-02T14:10:00.864Z,15.55
2023-03-02T14:12:31.070Z,24.30
2023-03-02T14:14:59.477Z,21.17
2023-03-02T14:17:28.176Z,16.45
2023-03-02T14:19:57.536Z,21.33
2023-03-02T14:22:30.304Z,18.77
2023-03-02T14:24:58.124Z,21.85
2023-03-02T14:27:29.228Z,12.57
2023-03-02T14:29:58.457Z,16.40
2023-03-02T14:32:27.021Z,25.70
2023-03-02T14:34:55.462Z,25.17
2023-03-02T14:37:27.956Z,12.00
2023-03-02T14:39:56.903Z,20.60
2023-03-02T14:42:24.742Z,19.05
2023-03-02T14:44:55.526Z,20.88
2023-03-02T14:47:25.806Z,20.58
2023-03-02T14:49:53.922Z,21.02
2023-03-02T14:52:26.624Z,23.92
2023-03-02T14:54:57.594Z,21.88
2023-03-02T14:57:28.701Z,19.83
2023-03-02T15:00:00.074Z,24.77
2023-03-02T15:02:28.521Z,23.27
2023-03-02T15:04:59.567Z,16.92
2023-03-02T15:07:28.164Z,9.90
2023-03-02T15:09:57.118Z,19.67
2023-03-02T15:12:26.111Z,18.52
2023-03-02T15:14:53.768Z,20.92
2023-03-02T15:17:24.753Z,17.38
2023-03-02T15:19:52.904Z,17.95
2023-03-02T15:22:20.325Z,13.32
2023-03-02T15:24:48.129Z,17.95
2023-03-02T15:27:16.400Z,16.13
2023-03-02T15:29:45.694Z,23.50
2023-03-02T15:32:13.259Z,24.30
2023-03-02T15:34:41.047Z,14.70
2023-03-02T15:37:09.737Z,12.27
2023-03-02T15:39:37.701Z,21.80
2023-03-02T15:42:07.133Z,11.02
2023-03-02T15:44:34.840Z,6.15
2023-03-02T15:47:05.660Z,13.75
2023-03-02T15:49:33.142Z,15.75
2023-03-02T15:52:08.493Z,37.28
2023-03-02T15:54:36.117Z,21.75
2023-03-02T15:57:03.751Z,11.00
2023-03-02T15:59:32.033Z,19.23
2023-03-02T16:01:59.864Z,12.75
2023-03-02T16:04:28.200Z,20.27
2023-03-02T16:06:56.385Z,22.85
2023-03-02T16:09:24.784Z,12.75
2023-03-02T16:11:56.149Z,20.10
2023-03-02T16:14:24.037Z,10.40
2023-03-02T16:16:51.765Z,14.52
2023-03-02T16:19:20.352Z,10.50
2023-03-02T16:21:49.061Z,15.95
2023-03-02T16:24:19.999Z,33.00
2023-03-02T16:26:48.072Z,18.30
2023-03-02T16:29:15.774Z,20.33
2023-03-02T16:31:46.209Z,16.25
2023-03-02T16:34:14.202Z,26.20
2023-03-02T16:36:44.739Z,28.65
2023-03-02T16:39:13.569Z,40.47
2023-03-02T16:41:42.921Z,32.90
2023-03-02T16:44:11.781Z,21.20
2023-03-02T16:46:40.396Z,23.27
2023-03-02T16:49:08.812Z,22.98
2023-03-02T16:51:36.595Z,22.38
2023-03-02T16:54:08.439Z,30.20
2023-03-02T16:56:35.963Z,41.88
2023-03-02T16:59:05.090Z,50.47
2023-03-02T17:01:35.379Z,17.95
2023-03-02T17:04:05.720Z,29.80
2023-03-02T17:06:33.581Z,27.27
2023-03-02T17:09:01.246Z,23.50
2023-03-02T17:11:31.372Z,39.47
2023-03-02T17:13:58.992Z,15.35
2023-03-02T17:16:26.917Z,20.50
2023-03-02T17:18:54.935Z,26.05
2023-03-02T17:21:24.514Z,14.32
2023-03-02T17:23:52.490Z,20.15
2023-03-02T17:26:20.405Z,14.63
2023-03-02T17:28:47.947Z,16.52
2023-03-02T17:31:15.502Z,12.98
2023-03-02T17:33:45.748Z,13.65
2023-03-02T17:36:15.932Z,18.73
2023-03-02T17:38:43.603Z,14.73
2023-03-02T17:41:12.366Z,10.73
2023-03-02T17:43:41.539Z,13.82
2023-03-02T17:46:10.509Z,9.18
2023-03-02T17:48:38.153Z,13.13
2023-03-02T17:51:05.776Z,18.55
2023-03-02T17:53:33.543Z,10.88
2023-03-02T17:56:01.101Z,11.40
2023-03-02T17:58:39.364Z,12.55
2023-03-02T18:01:12.355Z,13.88
2023-03-02T18:03:40.201Z,7.65
2023-03-02T18:06:08.035Z,4.38
2023-03-02T18:08:37.005Z,6.38
2023-03-02T18:11:05.273Z,8.07
2023-03-02T18:13:32.870Z,6.18
2023-03-02T18:16:00.656Z,6.35
2023-03-02T18:18:29.213Z,7.97
2023-03-02T18:20:57.423Z,9.27
2023-03-02T18:23:25.117Z,7.05
2023-03-02T18:25:52.716Z,3.05
2023-03-02T18:28:20.309Z,14.20
2023-03-02T18:30:48.023Z,7.50
2023-03-02T18:33:15.728Z,5.72
2023-03-02T18:35:45.921Z,10.48
2023-03-02T18:38:13.657Z,5.35
2023-03-02T18:40:41.322Z,9.63
2023-03-02T18:43:08.830Z,9.13
2023-03-02T18:45:36.584Z,3.83
2023-03-02T18:48:06.755Z,5.53
2023-03-02T18:50:34.396Z,5.85
2023-03-02T18:53:04.625Z,10.25
2023-03-02T18:55:32.239Z,4.32
2023-03-02T18:57:59.843Z,12.27
2023-03-02T19:00:28.356Z,6.53
2023-03-02T19:02:56.629Z,6.30
2023-03-02T19:05:25.216Z,2.25
2023-03-02T19:07:52.746Z,3.67
2023-03-02T19:10:21.555Z,6.18
2023-03-02T19:12:49.299Z,10.50
2023-03-02T19:15:16.972Z,1.02
2023-03-02T19:17:45.240Z,6.40
2023-03-02T19:20:17.434Z,4.32
2023-03-02T19:22:44.999Z,5.45
2023-03-02T19:25:12.530Z,1.80
2023-03-02T19:27:41.924Z,1.48
2023-03-02T19:30:10.463Z,2.40
2023-03-02T19:32:38.473Z,4.90
2023-03-02T19:35:09.268Z,3.10
2023-03-02T19:37:36.937Z,5.43
2023-03-02T19:40:04.624Z,2.30
2023-03-02T19:42:34.879Z,3.10
2023-03-02T19:45:03.453Z,4.05
2023-03-02T19:47:32.158Z,3.63
2023-03-02T19:50:00.285Z,2.55
2023-03-02T19:52:27.983Z,4.50
2023-03-02T19:54:55.576Z,1.70
2023-03-02T19:57:25.148Z,2.10
2023-03-02T19:59:54.569Z,5.40
2023-03-02T20:02:22.600Z,5.55
2023-03-02T20:04:53.504Z,5.25
2023-03-02T20:07:21.056Z,1.33
2023-03-02T20:09:48.423Z,3.65
2023-03-02T20:12:16.180Z,4.13
2023-03-02T20:14:48.734Z,1.90
2023-03-02T20:17:17.738Z,3.20
2023-03-02T20:19:45.922Z,4.43
2023-03-02T20:22:13.623Z,2.22
2023-03-02T20:24:41.660Z,3.95
2023-03-02T20:27:09.965Z,3.67
2023-03-02T20:29:37.815Z,2.38
2023-03-02T20:32:06.314Z,2.20
2023-03-02T20:34:38.131Z,3.85
2023-03-02T20:37:08.878Z,2.75
2023-03-02T20:39:39.815Z,10.25
2023-03-02T20:42:08.232Z,5.55
2023-03-02T20:44:35.961Z,4.78
2023-03-02T20:47:10.879Z,3.22
2023-03-02T20:49:39.013Z,2.45
2023-03-02T20:52:07.404Z,3.90
2023-03-02T20:54:39.963Z,2.45
2023-03-02T20:57:10.348Z,0.88
2023-03-02T20:59:38.203Z,2.42
2023-03-02T21:02:06.581Z,3.25
2023-03-02T21:04:36.802Z,2.40
2023-03-02T21:07:04.285Z,2.65
2023-03-02T21:09:31.784Z,3.78
2023-03-02T21:11:59.432Z,3.17
2023-03-02T21:14:27.797Z,2.58
2023-03-02T21:16:55.333Z,2.78
2023-03-02T21:19:23.834Z,2.97
2023-03-02T21:21:55.404Z,2.33
2023-03-02T21:24:23.657Z,6.28
2023-03-02T21:26:53.570Z,5.00
2023-03-02T21:29:26.759Z,2.67
2023-03-02T21:31:54.770Z,3.05
2023-03-02T21:34:22.493Z,1.70
2023-03-02T21:36:53.675Z,3.63
2023-03-02T21:39:25.620Z,2.63
2023-03-02T21:41:53.500Z,3.60
2023-03-02T21:44:21.377Z,4.10
2023-03-02T21:46:49.157Z,4.97
2023-03-02T21:49:17.827Z,2.80
2023-03-02T21:51:45.393Z,1.52
2023-03-02T21:54:14.431Z,3.03
2023-03-02T21:56:43.190Z,2.47
2023-03-02T21:59:11.391Z,4.43
2023-03-02T22:01:38.964Z,3.97
2023-03-02T22:04:06.615Z,6.15
2023-03-02T22:06:35.885Z,5.78
2023-03-02T22:09:06.427Z,6.43
2023-03-02T22:11:38.742Z,3.40
2023-03-02T22:14:13.916Z,5.47
2023-03-02T22:16:45.187Z,4.93
2023-03-02T22:19:26.994Z,5.35
2023-03-02T22:21:59.981Z,0.75
2023-03-02T22:24:32.072Z,3.08
2023-03-02T22:26:59.596Z,4.90
2023-03-02T22:29:33.028Z,5.53
2023-03-02T22:32:24.464Z,4.93
2023-03-02T22:34:56.198Z,5.40
2023-03-02T22:37:28.702Z,2.33
2023-03-02T22:39:58.197Z,4.20
2023-03-02T22:42:29.126Z,3.35
2023-03-02T22:44:59.146Z,6.25
2023-03-02T22:47:29.154Z,5.20
2023-03-02T22:50:00.700Z,5.80
2023-03-02T22:52:37.151Z,4.40
2023-03-02T22:55:27.485Z,5.32
2023-03-02T22:57:57.737Z,7.55
2023-03-02T23:00:25.187Z,4.53
2023-03-02T23:02:55.165Z,7.43
2023-03-02T23:05:26.000Z,4.65
2023-03-02T23:08:01.389Z,5.43
2023-03-02T23:10:29.129Z,10.35
2023-03-02T23:12:59.404Z,6.45
2023-03-02T23:15:26.901Z,2.33
2023-03-02T23:17:54.698Z,5.53
2023-03-02T23:20:23.959Z,9.63
2023-03-02T23:22:52.067Z,8.73
2023-03-02T23:25:19.772Z,7.13
2023-03-02T23:27:47.336Z,9.60
2023-03-02T23:30:17.912Z,9.82
2023-03-02T23:32:45.785Z,4.28
2023-03-02T23:35:13.496Z,4.70
2023-03-02T23:37:43.605Z,3.30
2023-03-02T23:40:11.701Z,7.43
2023-03-02T23:42:39.280Z,6.38
2023-03-02T23:45:07.287Z,4.38
2023-03-02T23:47:34.933Z,3.28
2023-03-02T23:50:02.395Z,6.07
2023-03-02T23:52:30.040Z,3.67
2023-03-02T23:55:00.257Z,7.13
2023-03-02T23:57:27.792Z,11.88
2023-03-02T23:59:55.288Z,12.68
